Time;durP1;ratioP1;P1;durP2;ratioP2;P2;SDS_P1;SDS_P2;PMS_P1;PMS_P2;Temp;Humidity;BMP_temperature;BMP_pressure;BME280_temperature;BME280_humidity;BME280_pressure;Samples;Min_cycle;Max_cycle;Signal;HPM_P1;HPM_P2
2021/06/26 00:01:42;;;;;;;16.15;6.22;;;;;;;;;;5075621;28;20052;-45
2021/06/26 00:04:08;;;;;;;11.05;5.30;;;;;;;;;;5075352;28;20021;-46
2021/06/26 00:06:34;;;;;;;15.63;4.80;;;;;;;;;;5075315;28;20028;-46
2021/06/26 00:09:01;;;;;;;8.98;3.65;;;;;;;;;;5075176;28;20496;-46
2021/06/26 00:11:27;;;;;;;11.90;3.53;;;;;;;;;;5075280;28;20020;-46
2021/06/26 00:13:53;;;;;;;11.27;3.55;;;;;;;;;;5075251;28;20055;-47
2021/06/26 00:16:19;;;;;;;7.88;2.90;;;;;;;;;;5075422;28;20053;-46
2021/06/26 00:18:45;;;;;;;5.95;2.97;;;;;;;;;;5075208;28;20028;-46
2021/06/26 00:21:11;;;;;;;11.15;3.30;;;;;;;;;;5073916;28;20396;-45
2021/06/26 00:23:37;;;;;;;14.18;3.47;;;;;;;;;;5075079;28;20559;-46
2021/06/26 00:26:04;;;;;;;9.57;3.78;;;;;;;;;;5075007;28;20031;-46
2021/06/26 00:28:30;;;;;;;7.38;3.05;;;;;;;;;;5075067;28;20164;-45
2021/06/26 00:30:56;;;;;;;10.10;3.58;;;;;;;;;;5075081;28;20020;-45
2021/06/26 00:33:22;;;;;;;17.05;3.88;;;;;;;;;;5075096;28;20494;-44
2021/06/26 00:35:48;;;;;;;6.55;3.10;;;;;;;;;;5075059;28;20033;-44
2021/06/26 00:38:14;;;;;;;9.40;3.20;;;;;;;;;;5074678;28;20425;-45
2021/06/26 00:40:40;;;;;;;9.27;3.25;;;;;;;;;;5074546;28;20024;-44
2021/06/26 00:43:06;;;;;;;12.38;4.85;;;;;;;;;;5074810;28;20028;-45
2021/06/26 00:45:32;;;;;;;11.77;3.35;;;;;;;;;;5074884;28;20094;-44
2021/06/26 00:47:58;;;;;;;11.43;3.85;;;;;;;;;;5074756;28;20052;-44
2021/06/26 00:50:26;;;;;;;10.45;3.97;;;;;;;;;;5074577;28;20078;-44
2021/06/26 00:52:52;;;;;;;21.88;10.10;;;;;;;;;;5074631;28;20044;-45
2021/06/26 00:55:19;;;;;;;17.27;6.90;;;;;;;;;;5074502;28;20025;-44
2021/06/26 00:57:49;;;;;;;17.27;8.60;;;;;;;;;;5074793;28;20021;-43
2021/06/26 01:00:16;;;;;;;12.03;6.63;;;;;;;;;;5074634;28;20024;-43
2021/06/26 01:02:42;;;;;;;11.65;5.07;;;;;;;;;;5074869;28;20025;-44
2021/06/26 01:05:09;;;;;;;13.55;4.38;;;;;;;;;;5074479;28;20036;-45
2021/06/26 01:07:35;;;;;;;10.88;4.07;;;;;;;;;;5074185;28;20411;-44
2021/06/26 01:10:01;;;;;;;5.85;3.17;;;;;;;;;;5074136;28;20027;-44
2021/06/26 01:12:27;;;;;;;12.68;6.32;;;;;;;;;;5074295;28;20074;-45
2021/06/26 01:14:53;;;;;;;11.88;7.07;;;;;;;;;;5074096;28;20132;-45
2021/06/26 01:17:20;;;;;;;25.02;12.02;;;;;;;;;;5074178;28;20028;-44
2021/06/26 01:19:46;;;;;;;12.35;5.28;;;;;;;;;;5074390;28;20025;-46
2021/06/26 01:22:15;;;;;;;14.25;4.47;;;;;;;;;;5074150;28;20048;-45
2021/06/26 01:24:43;;;;;;;9.07;3.40;;;;;;;;;;5074510;28;20086;-46
2021/06/26 01:27:09;;;;;;;15.75;7.55;;;;;;;;;;5074070;28;20060;-44
2021/06/26 01:29:36;;;;;;;16.00;6.65;;;;;;;;;;5073913;28;20027;-44
2021/06/26 01:32:05;;;;;;;14.18;6.68;;;;;;;;;;5073848;28;20025;-43
2021/06/26 01:34:31;;;;;;;16.20;7.72;;;;;;;;;;5073902;28;20024;-43
2021/06/26 01:36:57;;;;;;;10.77;4.85;;;;;;;;;;5072509;28;20033;-43
2021/06/26 01:39:23;;;;;;;10.13;4.50;;;;;;;;;;5073976;28;20035;-44
2021/06/26 01:41:53;;;;;;;12.07;4.07;;;;;;;;;;5073944;28;20369;-44
2021/06/26 01:44:19;;;;;;;15.18;5.28;;;;;;;;;;5073733;28;20038;-44
2021/06/26 01:46:45;;;;;;;15.77;4.90;;;;;;;;;;5073704;28;20094;-44
2021/06/26 01:49:12;;;;;;;14.75;5.15;;;;;;;;;;5073615;28;20024;-44
2021/06/26 01:51:39;;;;;;;11.02;3.63;;;;;;;;;;5072747;28;20111;-44
2021/06/26 01:54:06;;;;;;;7.68;3.72;;;;;;;;;;5073422;28;20025;-43
2021/06/26 01:56:32;;;;;;;12.55;3.90;;;;;;;;;;5073782;28;20036;-43
2021/06/26 01:58:59;;;;;;;7.28;3.35;;;;;;;;;;5073531;28;20028;-44
2021/06/26 02:01:25;;;;;;;11.20;3.70;;;;;;;;;;5073477;28;20036;-45
2021/06/26 02:03:51;;;;;;;10.57;3.25;;;;;;;;;;5073492;28;20381;-44
2021/06/26 02:06:17;;;;;;;9.00;3.90;;;;;;;;;;5073421;28;20024;-45
2021/06/26 02:08:45;;;;;;;6.78;3.83;;;;;;;;;;5073285;28;20028;-44
2021/06/26 02:11:11;;;;;;;10.68;3.63;;;;;;;;;;5073355;28;20569;-44
2021/06/26 02:13:37;;;;;;;7.70;2.83;;;;;;;;;;5073391;28;20114;-44
2021/06/26 02:16:03;;;;;;;7.32;3.28;;;;;;;;;;5073625;28;20031;-45
2021/06/26 02:18:32;;;;;;;13.30;3.72;;;;;;;;;;5073436;28;20468;-45
2021/06/26 02:20:58;;;;;;;8.68;3.42;;;;;;;;;;5073408;28;20036;-45
2021/06/26 02:23:24;;;;;;;10.35;3.55;;;;;;;;;;5073292;28;20027;-44
2021/06/26 02:25:50;;;;;;;6.75;3.00;;;;;;;;;;5073259;28;20108;-44
2021/06/26 02:28:16;;;;;;;10.25;2.92;;;;;;;;;;5073062;28;20029;-44
2021/06/26 02:30:42;;;;;;;10.10;3.28;;;;;;;;;;5073380;28;20029;-44
2021/06/26 02:33:08;;;;;;;8.88;3.70;;;;;;;;;;5073174;28;20103;-44
2021/06/26 02:35:34;;;;;;;7.88;2.85;;;;;;;;;;5072936;28;20093;-44
2021/06/26 02:38:02;;;;;;;12.35;3.85;;;;;;;;;;5072887;28;20376;-44
2021/06/26 02:40:28;;;;;;;8.48;3.72;;;;;;;;;;5072805;28;20082;-44
2021/06/26 02:42:55;;;;;;;8.85;3.83;;;;;;;;;;5073090;28;20423;-44
2021/06/26 02:45:21;;;;;;;8.20;3.88;;;;;;;;;;5071823;28;20119;-44
2021/06/26 02:47:47;;;;;;;11.48;3.42;;;;;;;;;;5072809;28;20020;-44
2021/06/26 02:50:13;;;;;;;10.75;3.50;;;;;;;;;;5072971;28;20028;-44
2021/06/26 02:52:39;;;;;;;10.55;3.10;;;;;;;;;;5072902;28;20025;-44
2021/06/26 02:55:08;;;;;;;10.52;3.40;;;;;;;;;;5072751;28;20021;-44
2021/06/26 02:57:34;;;;;;;7.38;3.50;;;;;;;;;;5073248;28;20145;-44
2021/06/26 03:00:00;;;;;;;9.38;3.15;;;;;;;;;;5073068;28;20056;-44
2021/06/26 03:02:27;;;;;;;11.70;3.15;;;;;;;;;;5074607;28;20021;-45
2021/06/26 03:04:53;;;;;;;11.18;3.35;;;;;;;;;;5076606;28;20047;-44
2021/06/26 03:07:19;;;;;;;8.30;2.92;;;;;;;;;;5076605;28;20031;-44
2021/06/26 03:09:45;;;;;;;8.68;2.95;;;;;;;;;;5076478;28;20521;-44
2021/06/26 03:12:11;;;;;;;11.88;3.92;;;;;;;;;;5076590;28;20060;-44
2021/06/26 03:14:37;;;;;;;11.05;3.20;;;;;;;;;;5076356;28;20519;-44
2021/06/26 03:17:03;;;;;;;12.15;3.22;;;;;;;;;;5076463;28;20032;-44
2021/06/26 03:19:30;;;;;;;8.65;2.90;;;;;;;;;;5076398;28;20020;-45
2021/06/26 03:21:56;;;;;;;9.45;3.00;;;;;;;;;;5076154;28;20024;-44
2021/06/26 03:24:22;;;;;;;8.63;3.15;;;;;;;;;;5076167;28;20056;-44
2021/06/26 03:26:48;;;;;;;9.82;3.53;;;;;;;;;;5076118;28;20032;-45
2021/06/26 03:29:14;;;;;;;11.15;3.33;;;;;;;;;;5076296;28;20028;-46
2021/06/26 03:31:40;;;;;;;10.60;3.10;;;;;;;;;;5076282;28;20020;-44
2021/06/26 03:34:06;;;;;;;11.05;3.08;;;;;;;;;;5076207;28;20047;-44
2021/06/26 03:36:32;;;;;;;8.02;3.08;;;;;;;;;;5076183;28;20057;-45
2021/06/26 03:38:58;;;;;;;7.43;3.10;;;;;;;;;;5076213;28;20017;-45
2021/06/26 03:41:26;;;;;;;10.77;3.17;;;;;;;;;;5075969;28;20055;-44
2021/06/26 03:43:52;;;;;;;16.65;9.30;;;;;;;;;;5075816;28;20131;-44
2021/06/26 03:46:19;;;;;;;12.07;7.30;;;;;;;;;;5076081;28;20029;-45
2021/06/26 03:48:45;;;;;;;8.48;3.83;;;;;;;;;;5075795;28;20020;-44
2021/06/26 03:51:11;;;;;;;11.52;4.53;;;;;;;;;;5076083;28;20096;-44
2021/06/26 03:53:37;;;;;;;7.85;3.80;;;;;;;;;;5075777;28;20541;-45
2021/06/26 03:56:03;;;;;;;9.93;3.47;;;;;;;;;;5075642;28;20032;-44
2021/06/26 03:58:29;;;;;;;5.22;3.25;;;;;;;;;;5076020;28;20024;-44
2021/06/26 04:00:56;;;;;;;9.77;3.53;;;;;;;;;;5075771;28;20024;-44
2021/06/26 04:03:23;;;;;;;7.05;3.33;;;;;;;;;;5075893;28;20025;-44
2021/06/26 04:05:49;;;;;;;6.50;3.65;;;;;;;;;;5075600;28;20032;-44
2021/06/26 04:08:15;;;;;;;4.80;2.80;;;;;;;;;;5075477;28;20017;-44
2021/06/26 04:10:42;;;;;;;9.20;3.42;;;;;;;;;;5075493;28;20494;-44
2021/06/26 04:13:08;;;;;;;10.23;3.65;;;;;;;;;;5074993;28;20017;-44
2021/06/26 04:15:34;;;;;;;7.70;3.03;;;;;;;;;;5074908;28;20153;-44
2021/06/26 04:18:00;;;;;;;12.20;3.72;;;;;;;;;;5075561;28;20017;-44
2021/06/26 04:20:26;;;;;;;6.80;3.15;;;;;;;;;;5075807;28;20416;-44
2021/06/26 04:22:53;;;;;;;10.23;3.55;;;;;;;;;;5075367;28;20056;-44
2021/06/26 04:25:19;;;;;;;8.07;2.88;;;;;;;;;;5075199;28;20122;-44
2021/06/26 04:27:46;;;;;;;8.15;3.28;;;;;;;;;;5075390;28;20036;-45
2021/06/26 04:30:13;;;;;;;7.85;3.17;;;;;;;;;;5075102;28;20058;-45
2021/06/26 04:32:40;;;;;;;8.18;3.38;;;;;;;;;;5075356;28;20017;-45
2021/06/26 04:35:07;;;;;;;6.85;3.17;;;;;;;;;;5075304;28;20063;-45
2021/06/26 04:37:34;;;;;;;9.05;3.38;;;;;;;;;;5075155;28;20052;-45
2021/06/26 04:40:00;;;;;;;8.27;3.30;;;;;;;;;;5075126;28;20020;-44
2021/06/26 04:42:26;;;;;;;8.65;4.07;;;;;;;;;;5075077;28;20021;-45
2021/06/26 04:44:52;;;;;;;4.90;2.72;;;;;;;;;;5075231;28;20504;-44
2021/06/26 04:47:18;;;;;;;5.78;3.25;;;;;;;;;;5075135;28;20032;-45
2021/06/26 04:49:44;;;;;;;6.00;3.30;;;;;;;;;;5074994;28;20389;-44
2021/06/26 04:52:10;;;;;;;9.10;2.92;;;;;;;;;;5074819;28;20070;-45
2021/06/26 04:54:37;;;;;;;8.88;2.80;;;;;;;;;;5074818;28;20086;-44
2021/06/26 04:57:03;;;;;;;3.33;2.63;;;;;;;;;;5074715;28;20024;-45
2021/06/26 04:59:29;;;;;;;8.60;2.75;;;;;;;;;;5074766;28;20024;-45
2021/06/26 05:01:55;;;;;;;3.92;3.00;;;;;;;;;;5074560;28;20456;-45
2021/06/26 05:04:22;;;;;;;5.28;2.60;;;;;;;;;;5074725;28;20035;-45
2021/06/26 05:06:48;;;;;;;5.93;2.80;;;;;;;;;;5074513;28;20074;-45
2021/06/26 05:09:14;;;;;;;6.93;3.15;;;;;;;;;;5074425;28;20108;-44
2021/06/26 05:11:41;;;;;;;18.77;4.20;;;;;;;;;;5073412;28;20024;-44
2021/06/26 05:14:07;;;;;;;5.18;2.70;;;;;;;;;;5074476;28;20045;-45
2021/06/26 05:16:33;;;;;;;6.70;2.80;;;;;;;;;;5074286;28;20503;-44
2021/06/26 05:18:59;;;;;;;8.55;2.80;;;;;;;;;;5074120;28;20032;-44
2021/06/26 05:21:25;;;;;;;5.47;2.75;;;;;;;;;;5074377;28;20035;-44
2021/06/26 05:23:51;;;;;;;7.57;2.85;;;;;;;;;;5074097;28;20021;-44
2021/06/26 05:26:17;;;;;;;6.28;3.03;;;;;;;;;;5073894;28;20017;-44
2021/06/26 05:28:44;;;;;;;7.25;3.38;;;;;;;;;;5074173;28;20024;-44
2021/06/26 05:31:10;;;;;;;9.30;3.10;;;;;;;;;;5074091;28;20039;-44
2021/06/26 05:33:36;;;;;;;3.97;2.97;;;;;;;;;;5074116;28;20071;-43
2021/06/26 05:36:02;;;;;;;3.25;2.90;;;;;;;;;;5074026;28;20028;-43
2021/06/26 05:38:28;;;;;;;4.95;3.20;;;;;;;;;;5074321;28;20033;-44
2021/06/26 05:40:54;;;;;;;5.95;2.88;;;;;;;;;;5074096;28;20032;-44
2021/06/26 05:43:20;;;;;;;3.97;3.42;;;;;;;;;;5074270;28;20048;-44
2021/06/26 05:45:46;;;;;;;8.15;3.30;;;;;;;;;;5073814;28;20043;-43
2021/06/26 05:48:12;;;;;;;6.38;3.17;;;;;;;;;;5074100;28;20033;-44
2021/06/26 05:50:38;;;;;;;2.80;2.50;;;;;;;;;;5073905;28;20103;-44
2021/06/26 05:53:04;;;;;;;4.00;2.72;;;;;;;;;;5073705;28;20021;-44
2021/06/26 05:55:31;;;;;;;4.13;2.78;;;;;;;;;;5072956;28;20052;-44
2021/06/26 05:57:57;;;;;;;8.60;3.78;;;;;;;;;;5073705;28;20029;-44
2021/06/26 06:00:24;;;;;;;4.30;3.25;;;;;;;;;;5073656;28;20468;-44
2021/06/26 06:02:50;;;;;;;3.30;2.90;;;;;;;;;;5073610;28;20028;-43
2021/06/26 06:05:16;;;;;;;8.85;3.13;;;;;;;;;;5073943;28;20070;-43
2021/06/26 06:07:43;;;;;;;6.22;3.33;;;;;;;;;;5073604;28;20021;-43
2021/06/26 06:10:10;;;;;;;7.95;2.92;;;;;;;;;;5073563;28;20016;-43
2021/06/26 06:12:37;;;;;;;3.78;2.83;;;;;;;;;;5073275;28;20017;-43
2021/06/26 06:15:03;;;;;;;4.40;2.80;;;;;;;;;;5073275;28;20057;-43
2021/06/26 06:17:29;;;;;;;6.32;3.45;;;;;;;;;;5073687;28;20020;-43
2021/06/26 06:19:55;;;;;;;4.43;2.85;;;;;;;;;;5073567;28;20033;-44
2021/06/26 06:22:23;;;;;;;5.45;2.80;;;;;;;;;;5073320;28;20031;-50
2021/06/26 06:24:49;;;;;;;6.07;2.60;;;;;;;;;;5073369;28;20047;-44
2021/06/26 06:27:15;;;;;;;4.78;2.90;;;;;;;;;;5073182;28;20031;-43
2021/06/26 06:29:41;;;;;;;4.53;2.83;;;;;;;;;;5073535;28;20031;-43
2021/06/26 06:32:08;;;;;;;4.07;2.60;;;;;;;;;;5073248;28;20056;-43
2021/06/26 06:34:34;;;;;;;3.60;2.80;;;;;;;;;;5073268;28;20031;-44
2021/06/26 06:37:00;;;;;;;7.38;3.22;;;;;;;;;;5075631;28;20418;-43
2021/06/26 06:39:26;;;;;;;7.45;3.50;;;;;;;;;;5079944;28;20024;-43
2021/06/26 06:41:52;;;;;;;4.20;3.28;;;;;;;;;;5079743;28;20461;-43
2021/06/26 06:44:19;;;;;;;40.45;30.58;;;;;;;;;;5080007;28;20048;-43
2021/06/26 06:46:45;;;;;;;9.68;6.72;;;;;;;;;;5079662;28;20028;-43
2021/06/26 06:49:11;;;;;;;11.82;8.50;;;;;;;;;;5078781;28;20040;-43
2021/06/26 06:51:37;;;;;;;38.13;16.50;;;;;;;;;;5079925;28;20449;-43
2021/06/26 06:54:03;;;;;;;15.18;8.68;;;;;;;;;;5079727;28;20032;-43
2021/06/26 06:56:30;;;;;;;16.60;9.07;;;;;;;;;;5079757;28;20017;-43
2021/06/26 06:58:56;;;;;;;27.00;7.90;;;;;;;;;;5079578;28;20021;-43
2021/06/26 07:01:23;;;;;;;7.28;3.25;;;;;;;;;;5079826;28;20380;-43
2021/06/26 07:03:49;;;;;;;15.25;4.38;;;;;;;;;;5079736;28;20400;-43
2021/06/26 07:06:15;;;;;;;10.80;4.47;;;;;;;;;;5079577;28;20081;-44
2021/06/26 07:08:42;;;;;;;10.75;3.55;;;;;;;;;;5079751;28;20024;-43
2021/06/26 07:11:08;;;;;;;4.93;2.33;;;;;;;;;;5079744;28;20032;-43
2021/06/26 07:13:34;;;;;;;5.82;2.33;;;;;;;;;;5079470;28;20028;-43
2021/06/26 07:16:00;;;;;;;3.38;2.30;;;;;;;;;;5079577;28;20029;-43
2021/06/26 07:18:26;;;;;;;3.50;2.58;;;;;;;;;;5079719;28;20094;-43
2021/06/26 07:20:53;;;;;;;40.75;31.83;;;;;;;;;;5079561;28;20020;-42
2021/06/26 07:23:20;;;;;;;38.80;24.00;;;;;;;;;;5079430;28;20049;-42
2021/06/26 07:25:46;;;;;;;10.23;7.18;;;;;;;;;;5079390;28;20032;-43
2021/06/26 07:28:12;;;;;;;40.15;30.95;;;;;;;;;;5079234;28;20465;-42
2021/06/26 07:30:39;;;;;;;13.95;10.52;;;;;;;;;;5079380;28;20063;-42
2021/06/26 07:33:05;;;;;;;9.98;6.32;;;;;;;;;;5079507;28;20477;-43
2021/06/26 07:35:31;;;;;;;22.70;17.75;;;;;;;;;;5079664;28;20032;-44
2021/06/26 07:37:57;;;;;;;23.92;15.07;;;;;;;;;;5077969;28;20431;-44
2021/06/26 07:40:25;;;;;;;9.02;5.93;;;;;;;;;;5079137;28;20040;-42
2021/06/26 07:42:51;;;;;;;5.25;3.28;;;;;;;;;;5079421;28;20043;-42
2021/06/26 07:45:17;;;;;;;3.67;2.67;;;;;;;;;;5079114;28;20036;-45
2021/06/26 07:47:44;;;;;;;9.88;2.92;;;;;;;;;;5078440;28;20028;-46
2021/06/26 07:50:10;;;;;;;163.20;131.25;;;;;;;;;;5074836;28;20032;-43
2021/06/26 07:52:36;;;;;;;271.08;217.00;;;;;;;;;;5075787;28;20021;-45
2021/06/26 07:55:02;;;;;;;55.08;43.85;;;;;;;;;;5075928;28;20024;-47
2021/06/26 07:57:29;;;;;;;29.33;21.88;;;;;;;;;;5075859;28;20103;-44
2021/06/26 07:59:55;;;;;;;7.82;6.43;;;;;;;;;;5076009;28;20021;-46
2021/06/26 08:02:22;;;;;;;4.38;3.50;;;;;;;;;;5075728;28;20112;-47
2021/06/26 08:04:48;;;;;;;77.65;59.55;;;;;;;;;;5075362;28;20075;-45
2021/06/26 08:07:14;;;;;;;42.78;28.42;;;;;;;;;;5075596;28;20024;-48
2021/06/26 08:09:40;;;;;;;21.05;14.80;;;;;;;;;;5074175;28;20043;-44
2021/06/26 08:12:06;;;;;;;153.75;76.28;;;;;;;;;;5075395;28;20048;-45
2021/06/26 08:14:32;;;;;;;42.40;28.70;;;;;;;;;;5074893;28;20093;-48
2021/06/26 08:16:59;;;;;;;11.45;8.30;;;;;;;;;;5075360;28;20071;-43
2021/06/26 08:19:25;;;;;;;10.30;4.68;;;;;;;;;;5075192;28;20476;-42
2021/06/26 08:21:51;;;;;;;18.48;14.20;;;;;;;;;;5075049;28;20056;-43
2021/06/26 08:24:17;;;;;;;23.70;16.35;;;;;;;;;;5074647;28;20463;-47
2021/06/26 08:26:43;;;;;;;22.10;17.77;;;;;;;;;;5075039;28;20051;-44
2021/06/26 08:29:09;;;;;;;29.27;20.52;;;;;;;;;;5075127;28;20065;-46
2021/06/26 08:31:35;;;;;;;14.60;9.27;;;;;;;;;;5074984;28;20028;-45
2021/06/26 08:34:01;;;;;;;25.35;20.88;;;;;;;;;;5075012;28;20473;-45
2021/06/26 08:36:27;;;;;;;126.47;98.32;;;;;;;;;;5074885;28;20024;-45
2021/06/26 08:38:53;;;;;;;44.70;33.65;;;;;;;;;;5074541;28;20020;-46
2021/06/26 08:41:20;;;;;;;48.75;36.03;;;;;;;;;;5074712;28;20108;-45
2021/06/26 08:43:46;;;;;;;25.48;17.40;;;;;;;;;;5074318;28;20394;-44
2021/06/26 08:46:13;;;;;;;41.00;14.82;;;;;;;;;;5074703;28;20068;-47
2021/06/26 08:48:39;;;;;;;18.85;12.18;;;;;;;;;;5074721;28;20397;-44
2021/06/26 08:51:05;;;;;;;45.03;35.60;;;;;;;;;;5074571;28;20060;-46
2021/06/26 08:53:31;;;;;;;11.43;7.65;;;;;;;;;;5074505;28;20059;-45
2021/06/26 08:55:57;;;;;;;25.83;20.38;;;;;;;;;;5074572;28;20060;-44
2021/06/26 08:58:23;;;;;;;40.20;30.73;;;;;;;;;;5074448;28;20575;-45
2021/06/26 09:00:50;;;;;;;13.02;9.13;;;;;;;;;;5074111;28;20480;-46
2021/06/26 09:03:18;;;;;;;16.17;11.23;;;;;;;;;;5074634;28;20048;-46
2021/06/26 09:05:46;;;;;;;8.98;3.97;;;;;;;;;;5074301;28;20037;-45
2021/06/26 09:08:12;;;;;;;29.50;23.40;;;;;;;;;;5074293;28;20081;-46
2021/06/26 09:10:38;;;;;;;14.68;5.53;;;;;;;;;;5072978;28;20021;-43
2021/06/26 09:13:16;;;;;;;9.57;6.22;;;;;;;;;;5073947;28;20035;-46
2021/06/26 09:15:42;;;;;;;26.15;20.27;;;;;;;;;;5074325;28;20055;-46
2021/06/26 09:18:16;;;;;;;54.33;41.63;;;;;;;;;;5074104;28;20354;-46
2021/06/26 09:20:45;;;;;;;16.83;10.63;;;;;;;;;;5074003;28;20392;-43
2021/06/26 09:23:29;;;;;;;11.25;7.47;;;;;;;;;;5073902;28;20027;-45
2021/06/26 09:26:11;;;;;;;6.38;5.75;;;;;;;;;;5073845;28;20121;-44
2021/06/26 09:28:39;;;;;;;8.05;6.82;;;;;;;;;;5071046;28;20028;-44
2021/06/26 09:31:13;;;;;;;7.65;5.75;;;;;;;;;;5073491;28;20510;-44
2021/06/26 09:33:39;;;;;;;9.23;5.05;;;;;;;;;;5073791;28;20027;-43
2021/06/26 09:36:06;;;;;;;8.88;6.65;;;;;;;;;;5073720;28;20029;-42
2021/06/26 09:38:33;;;;;;;7.80;4.45;;;;;;;;;;5073550;28;20035;-44
2021/06/26 09:41:00;;;;;;;6.57;4.72;;;;;;;;;;5073713;28;20059;-46
2021/06/26 09:43:30;;;;;;;6.72;4.07;;;;;;;;;;5073631;28;20031;-46
2021/06/26 09:46:09;;;;;;;3.55;3.13;;;;;;;;;;5073715;28;20044;-46
2021/06/26 09:48:46;;;;;;;7.32;4.63;;;;;;;;;;5072652;28;20024;-44
2021/06/26 09:51:29;;;;;;;7.68;3.25;;;;;;;;;;5073681;28;20024;-44
2021/06/26 09:53:56;;;;;;;15.90;5.20;;;;;;;;;;5073425;28;20024;-44
2021/06/26 09:56:22;;;;;;;12.55;5.10;;;;;;;;;;5073424;28;20040;-44
2021/06/26 09:58:52;;;;;;;7.55;4.13;;;;;;;;;;5072976;28;20111;-44
2021/06/26 10:01:20;;;;;;;7.78;3.72;;;;;;;;;;5073353;28;20020;-45
2021/06/26 10:03:46;;;;;;;3.65;3.13;;;;;;;;;;5073134;28;20016;-45
2021/06/26 10:06:13;;;;;;;3.30;3.00;;;;;;;;;;5073298;28;20086;-45
2021/06/26 10:08:39;;;;;;;4.38;3.45;;;;;;;;;;5073152;28;20025;-45
2021/06/26 10:11:05;;;;;;;4.57;3.65;;;;;;;;;;5072923;28;20024;-44
2021/06/26 10:13:34;;;;;;;4.30;3.33;;;;;;;;;;5072632;28;20052;-45
2021/06/26 10:16:02;;;;;;;5.25;3.35;;;;;;;;;;5073104;28;20502;-44
2021/06/26 10:18:28;;;;;;;6.30;3.97;;;;;;;;;;5072997;28;20103;-45
2021/06/26 10:20:55;;;;;;;6.40;5.35;;;;;;;;;;5073192;28;20025;-43
2021/06/26 10:23:21;;;;;;;4.90;3.70;;;;;;;;;;5072894;28;20151;-44
2021/06/26 10:25:48;;;;;;;3.00;2.67;;;;;;;;;;5073004;28;20054;-45
2021/06/26 10:28:19;;;;;;;5.30;2.17;;;;;;;;;;5072537;28;20029;-44
2021/06/26 10:31:06;;;;;;;4.45;2.70;;;;;;;;;;5072688;28;20024;-44
2021/06/26 10:33:33;;;;;;;3.47;3.15;;;;;;;;;;5072824;28;20021;-44
2021/06/26 10:36:00;;;;;;;5.60;3.50;;;;;;;;;;5073109;28;20052;-45
2021/06/26 10:38:27;;;;;;;5.45;2.90;;;;;;;;;;5073009;28;20078;-44
2021/06/26 10:40:57;;;;;;;6.38;2.55;;;;;;;;;;5072915;28;20049;-45
2021/06/26 10:43:26;;;;;;;8.38;3.13;;;;;;;;;;5072695;28;20025;-45
2021/06/26 10:45:54;;;;;;;4.53;2.97;;;;;;;;;;5072895;28;20045;-43
2021/06/26 10:48:27;;;;;;;3.97;2.63;;;;;;;;;;5073019;28;20419;-42
2021/06/26 10:50:56;;;;;;;5.00;2.53;;;;;;;;;;5072986;28;20033;-43
2021/06/26 10:53:23;;;;;;;4.70;2.80;;;;;;;;;;5072753;28;20078;-43
2021/06/26 10:55:57;;;;;;;5.32;3.15;;;;;;;;;;5072825;28;20029;-43
2021/06/26 10:58:30;;;;;;;4.50;3.15;;;;;;;;;;5072446;28;20025;-44
2021/06/26 11:00:56;;;;;;;6.13;3.00;;;;;;;;;;5072754;28;20027;-43
2021/06/26 11:03:25;;;;;;;11.98;8.00;;;;;;;;;;5050412;28;20060;-43
2021/06/26 11:05:52;;;;;;;4.43;3.20;;;;;;;;;;5023068;28;20361;-43
2021/06/26 11:08:19;;;;;;;5.68;3.28;;;;;;;;;;5021868;28;21588;-42
2021/06/26 11:10:58;;;;;;;9.80;4.18;;;;;;;;;;5022825;28;20025;-42
2021/06/26 11:13:25;;;;;;;7.70;5.23;;;;;;;;;;5021597;28;20137;-42
2021/06/26 11:15:51;;;;;;;9.73;6.38;;;;;;;;;;5022067;28;20655;-42
2021/06/26 11:18:18;;;;;;;6.60;3.40;;;;;;;;;;5022044;28;20029;-42
2021/06/26 11:20:45;;;;;;;5.22;3.05;;;;;;;;;;5021760;28;20020;-43
2021/06/26 11:23:18;;;;;;;9.93;3.85;;;;;;;;;;5023018;28;20105;-42
2021/06/26 11:25:45;;;;;;;5.93;3.00;;;;;;;;;;5025325;28;20033;-43
2021/06/26 11:28:12;;;;;;;6.97;5.32;;;;;;;;;;5025557;28;20021;-42
2021/06/26 11:30:41;;;;;;;1.92;1.83;;;;;;;;;;5026844;28;20246;-42
2021/06/26 11:33:07;;;;;;;2.95;2.25;;;;;;;;;;5025452;28;20059;-43
2021/06/26 11:35:35;;;;;;;5.30;3.00;;;;;;;;;;5024979;28;20443;-43
2021/06/26 11:38:02;;;;;;;24.65;17.35;;;;;;;;;;5025915;28;20878;-41
2021/06/26 11:40:29;;;;;;;13.05;7.32;;;;;;;;;;5025002;28;20036;-42
2021/06/26 11:42:56;;;;;;;90.22;67.00;;;;;;;;;;5025103;28;20448;-46
2021/06/26 11:45:25;;;;;;;99.60;75.30;;;;;;;;;;5024910;28;20630;-42
2021/06/26 11:48:10;;;;;;;4.72;4.25;;;;;;;;;;5025107;28;20092;-43
2021/06/26 11:50:37;;;;;;;8.43;3.67;;;;;;;;;;5025620;28;20030;-42
2021/06/26 11:53:05;;;;;;;5.55;3.17;;;;;;;;;;5026354;28;20028;-42
2021/06/26 11:55:55;;;;;;;8.38;5.30;;;;;;;;;;5024771;28;20524;-42
2021/06/26 11:58:21;;;;;;;3.22;2.92;;;;;;;;;;5026738;28;20029;-42
2021/06/26 12:01:01;;;;;;;7.05;6.18;;;;;;;;;;5025162;28;20025;-42
2021/06/26 12:03:29;;;;;;;27.58;17.15;;;;;;;;;;5024619;28;20076;-42
2021/06/26 12:06:03;;;;;;;18.02;8.63;;;;;;;;;;5024542;28;20144;-42
2021/06/26 12:08:30;;;;;;;30.77;23.02;;;;;;;;;;5024686;28;20833;-42
2021/06/26 12:10:57;;;;;;;6.53;3.85;;;;;;;;;;5024456;28;20033;-42
2021/06/26 12:13:23;;;;;;;8.73;5.57;;;;;;;;;;5024507;28;20026;-42
2021/06/26 12:15:50;;;;;;;6.53;3.45;;;;;;;;;;5024299;28;20525;-42
2021/06/26 12:18:16;;;;;;;12.38;8.27;;;;;;;;;;5024495;28;20029;-43
2021/06/26 12:20:42;;;;;;;13.25;7.35;;;;;;;;;;5024556;28;20029;-42
2021/06/26 12:23:09;;;;;;;6.15;5.32;;;;;;;;;;5024596;28;20456;-41
2021/06/26 12:25:36;;;;;;;9.70;6.82;;;;;;;;;;5025537;28;20087;-42
2021/06/26 12:28:03;;;;;;;7.28;5.50;;;;;;;;;;5024357;28;20032;-42
2021/06/26 12:30:29;;;;;;;3.33;2.70;;;;;;;;;;5024366;28;20499;-42
2021/06/26 12:33:08;;;;;;;11.48;4.05;;;;;;;;;;5024329;28;20620;-42
2021/06/26 12:35:34;;;;;;;9.40;3.75;;;;;;;;;;5023828;28;20508;-42
2021/06/26 12:38:00;;;;;;;12.63;9.55;;;;;;;;;;5024091;28;20021;-42
2021/06/26 12:40:29;;;;;;;11.68;6.32;;;;;;;;;;5023867;28;20049;-42
2021/06/26 12:42:58;;;;;;;4.75;4.03;;;;;;;;;;5023666;28;20136;-42
2021/06/26 12:45:25;;;;;;;2.35;2.15;;;;;;;;;;5023493;28;20035;-42
2021/06/26 12:48:07;;;;;;;8.45;5.60;;;;;;;;;;5023871;28;20055;-41
2021/06/26 12:50:44;;;;;;;7.35;2.78;;;;;;;;;;5025222;28;20028;-42
2021/06/26 12:53:11;;;;;;;3.78;3.05;;;;;;;;;;5025008;28;20043;-42
2021/06/26 12:55:37;;;;;;;12.70;9.75;;;;;;;;;;5023646;28;20787;-42
2021/06/26 12:58:08;;;;;;;8.25;5.85;;;;;;;;;;5023526;28;20025;-42
2021/06/26 13:00:34;;;;;;;14.57;9.65;;;;;;;;;;5024204;28;20076;-42
2021/06/26 13:03:00;;;;;;;6.22;3.78;;;;;;;;;;5023780;28;20802;-42
2021/06/26 13:05:26;;;;;;;7.18;4.93;;;;;;;;;;5023485;28;20033;-42
2021/06/26 13:08:05;;;;;;;3.15;2.83;;;;;;;;;;5023854;28;20037;-42
2021/06/26 13:10:32;;;;;;;3.35;3.05;;;;;;;;;;5023356;28;20600;-42
2021/06/26 13:12:59;;;;;;;6.70;3.45;;;;;;;;;;5024443;28;20568;-42
2021/06/26 13:15:27;;;;;;;6.65;4.88;;;;;;;;;;5023153;28;20049;-42
2021/06/26 13:17:53;;;;;;;189.50;126.95;;;;;;;;;;5024583;28;20029;-42
2021/06/26 13:20:19;;;;;;;190.68;124.15;;;;;;;;;;5023347;28;20512;-42
2021/06/26 13:22:45;;;;;;;94.72;64.25;;;;;;;;;;5023359;28;20021;-42
2021/06/26 13:25:13;;;;;;;33.88;22.73;;;;;;;;;;5022829;28;20041;-43
2021/06/26 13:27:40;;;;;;;36.25;20.70;;;;;;;;;;5023410;28;20031;-43
2021/06/26 13:30:08;;;;;;;20.75;12.55;;;;;;;;;;5023055;28;20052;-43
2021/06/26 13:32:34;;;;;;;70.90;50.55;;;;;;;;;;5022253;28;20586;-43
2021/06/26 13:35:00;;;;;;;46.38;29.92;;;;;;;;;;5024595;28;20435;-43
2021/06/26 13:37:26;;;;;;;31.95;21.05;;;;;;;;;;5023162;28;20039;-42
2021/06/26 13:39:52;;;;;;;21.95;17.27;;;;;;;;;;5022820;28;20401;-41
2021/06/26 13:42:18;;;;;;;16.67;11.98;;;;;;;;;;5022861;28;20083;-41
2021/06/26 13:44:44;;;;;;;14.07;10.27;;;;;;;;;;5022361;28;20040;-42
2021/06/26 13:47:10;;;;;;;4.93;3.30;;;;;;;;;;5023150;28;20029;-43
2021/06/26 13:49:36;;;;;;;5.50;2.72;;;;;;;;;;5023486;28;20049;-45
2021/06/26 13:52:03;;;;;;;2.72;2.40;;;;;;;;;;5022907;28;20029;-43
2021/06/26 13:54:29;;;;;;;12.43;9.63;;;;;;;;;;5022480;28;20048;-40
2021/06/26 13:56:56;;;;;;;27.88;21.05;;;;;;;;;;5022582;28;20040;-42
2021/06/26 13:59:22;;;;;;;5.45;4.32;;;;;;;;;;5024226;28;20090;-43
2021/06/26 14:01:48;;;;;;;66.82;44.85;;;;;;;;;;5022330;28;20113;-42
2021/06/26 14:04:14;;;;;;;29.65;21.10;;;;;;;;;;5024178;28;20025;-42
2021/06/26 14:06:40;;;;;;;36.05;24.35;;;;;;;;;;5022752;28;20053;-42
2021/06/26 14:09:06;;;;;;;16.20;10.52;;;;;;;;;;5022611;28;20152;-42
2021/06/26 14:11:34;;;;;;;8.88;5.47;;;;;;;;;;5022699;28;20409;-44
2021/06/26 14:14:00;;;;;;;8.23;2.97;;;;;;;;;;5022319;28;20036;-43
2021/06/26 14:16:26;;;;;;;2.90;2.45;;;;;;;;;;5022659;28;20041;-42
2021/06/26 14:18:54;;;;;;;2.63;2.08;;;;;;;;;;5022151;28;20035;-43
2021/06/26 14:21:20;;;;;;;3.50;1.88;;;;;;;;;;5021929;28;20152;-44
2021/06/26 14:23:46;;;;;;;2.72;1.58;;;;;;;;;;5022218;28;20037;-45
2021/06/26 14:26:12;;;;;;;2.08;1.45;;;;;;;;;;5022254;28;20191;-43
2021/06/26 14:28:42;;;;;;;1.40;1.30;;;;;;;;;;5022679;28;20029;-42
2021/06/26 14:31:09;;;;;;;3.67;1.55;;;;;;;;;;5023645;28;20028;-42
2021/06/26 14:33:35;;;;;;;3.28;1.85;;;;;;;;;;5024070;28;20025;-45
2021/06/26 14:36:02;;;;;;;3.28;1.80;;;;;;;;;;5022741;28;20838;-43